Portada
METAR-TAF:

METAR-TAF

Aeropuertos :

Base Naval de Rota

Rota, España

latitud: 36-39N, longitud: 006-21W, altitud: 26 m

Observación

El informe se hizo hace 37 minutos, a las 03:00 UTC
Viento 1 kt con dirección variable
Temperatura 17°C
Humedad 94%
Presión 1011 hPa
Visibilidad 10 km o más
Escasas nubes a una altura de 1400 ft
Nubes dispersas a una altura de 5900 ft

METAR: LERT 160300Z VRB01KT 9999 FEW014 SCT059 17/16 Q1011 NOSIG

Hora: 05:37 (03:37 UTC)

Pronóstico

El informe se hizo hace 1 hora y 37 minutos, a las 02:00 UTC
Pronóstico válido del 16 a las 03 UTC al 16 a las 12 UTC
Viento 5 kt del norte-noreste
Visibilidad 10 km o más
Nubes dispersas a una altura de 2500 ft
Probabilidad 30% :
Temporalmente
del 16 a las 03 UTC al 16 a las 08 UTC
Visibilidad: 3000 m
Cielo nuboso a una altura de 1000 ft
neblina

TAF: LERT 160200Z 1603/1612 03005KT 9999 SCT025 PROB30 TEMPO 1603/1608 3000 BR BKN010

Observaciones y pronósticos meteorológicos de más de 4000 aeropuertos (mensajes METAR y TAF).

Los puntos amarillos y rojos representan las estaciones disponibles.

Ponga el ratón en el punto deseado para ver el nombre de la estación.

Haga clic para ver las observaciones y los pronósticos meteorológicos.

Para cambiar el mapa : haga clic en los botones verdes con una cruz de color negro para hacer un zoom, en el botón verde con un guión para alejar o en las flechas verdes para mapas adyacentes.


METAR-TAF: